createdAt,value
2022-10-02T00:01:32.261Z,1.10
2022-10-02T00:04:01.069Z,1.23
2022-10-02T00:06:33.643Z,1.27
2022-10-02T00:09:04.638Z,1.27
2022-10-02T00:11:40.137Z,1.20
2022-10-02T00:14:11.336Z,1.20
2022-10-02T00:16:42.046Z,1.10
2022-10-02T00:19:12.088Z,1.27
2022-10-02T00:21:48.191Z,1.30
2022-10-02T00:24:17.448Z,1.40
2022-10-02T00:26:54.329Z,1.30
2022-10-02T00:29:30.486Z,1.50
2022-10-02T00:32:04.865Z,1.57
2022-10-02T00:34:37.957Z,1.50
2022-10-02T00:37:09.984Z,1.40
2022-10-02T00:39:45.781Z,1.80
2022-10-02T00:42:36.602Z,1.33
2022-10-02T00:45:19.865Z,1.27
2022-10-02T00:47:53.445Z,1.50
2022-10-02T00:50:32.002Z,1.30
2022-10-02T00:53:09.918Z,1.60
2022-10-02T00:55:50.771Z,1.50
2022-10-02T00:58:30.093Z,1.20
2022-10-02T01:01:01.752Z,1.40
2022-10-02T01:03:31.585Z,1.53
2022-10-02T01:06:00.026Z,1.43
2022-10-02T01:08:28.633Z,1.57
2022-10-02T01:10:57.247Z,1.50
2022-10-02T01:13:27.066Z,1.73
2022-10-02T01:15:56.844Z,1.73
2022-10-02T01:18:25.387Z,1.90
2022-10-02T01:20:54.930Z,1.73
2022-10-02T01:23:30.323Z,1.90
2022-10-02T01:26:00.278Z,2.00
2022-10-02T01:28:29.036Z,1.90
2022-10-02T01:30:59.639Z,1.70
2022-10-02T01:33:28.274Z,1.83
2022-10-02T01:35:57.250Z,1.90
2022-10-02T01:38:26.093Z,1.90
2022-10-02T01:40:54.550Z,2.00
2022-10-02T01:43:27.141Z,1.83
2022-10-02T01:46:03.096Z,2.00
2022-10-02T01:48:41.246Z,1.80
2022-10-02T01:51:17.807Z,2.03
2022-10-02T01:53:47.680Z,1.97
2022-10-02T01:56:20.066Z,2.00
2022-10-02T01:58:56.746Z,1.90
2022-10-02T02:01:32.548Z,2.30
2022-10-02T02:04:04.216Z,2.30
2022-10-02T02:06:34.535Z,2.17
2022-10-02T02:09:09.218Z,2.60
2022-10-02T02:11:41.622Z,2.70
2022-10-02T02:14:14.238Z,2.53
2022-10-02T02:16:44.118Z,2.73
2022-10-02T02:19:15.761Z,2.20
2022-10-02T02:21:46.281Z,2.80
2022-10-02T02:24:16.459Z,2.73
2022-10-02T02:26:45.694Z,2.23
2022-10-02T02:29:17.522Z,2.40
2022-10-02T02:31:48.554Z,2.20
2022-10-02T02:34:18.754Z,2.50
2022-10-02T02:36:49.201Z,2.47
2022-10-02T02:39:18.999Z,2.80
2022-10-02T02:41:50.127Z,2.30
2022-10-02T02:44:21.917Z,2.80
2022-10-02T02:47:04.851Z,2.20
2022-10-02T02:49:35.071Z,1.97
2022-10-02T02:52:05.334Z,1.90
2022-10-02T02:54:37.398Z,2.80
2022-10-02T02:57:08.220Z,2.40
2022-10-02T02:59:39.813Z,2.40
2022-10-02T03:02:08.420Z,2.40
2022-10-02T03:04:37.015Z,2.10
2022-10-02T03:07:06.219Z,2.10
2022-10-02T03:09:37.538Z,2.20
2022-10-02T03:12:12.361Z,2.17
2022-10-02T03:14:47.972Z,2.00
2022-10-02T03:17:24.014Z,2.10
2022-10-02T03:19:54.695Z,2.00
2022-10-02T03:22:27.297Z,2.17
2022-10-02T03:24:59.540Z,1.93
2022-10-02T03:27:35.187Z,2.57
2022-10-02T03:30:07.336Z,2.10
2022-10-02T03:32:37.044Z,2.10
2022-10-02T03:35:07.001Z,2.17
2022-10-02T03:37:35.598Z,1.90
2022-10-02T03:40:05.885Z,2.20
2022-10-02T03:42:36.945Z,2.10
2022-10-02T03:45:07.329Z,2.27
2022-10-02T03:47:35.968Z,2.10
2022-10-02T03:50:04.517Z,2.13
2022-10-02T03:52:33.704Z,2.00
2022-10-02T03:55:04.615Z,1.93
2022-10-02T03:57:35.809Z,2.17
2022-10-02T04:00:08.093Z,1.90
2022-10-02T04:02:40.792Z,1.97
2022-10-02T04:05:22.838Z,2.07
2022-10-02T04:07:52.997Z,1.90
2022-10-02T04:10:29.648Z,1.77
2022-10-02T04:13:02.970Z,2.33
2022-10-02T04:15:34.482Z,1.93
2022-10-02T04:18:06.354Z,2.03
2022-10-02T04:20:38.408Z,2.13
2022-10-02T04:23:13.614Z,2.00
2022-10-02T04:25:44.671Z,2.00
2022-10-02T04:28:15.451Z,1.80
2022-10-02T04:30:43.908Z,2.07
2022-10-02T04:33:15.428Z,1.90
2022-10-02T04:35:50.271Z,1.70
2022-10-02T04:38:31.290Z,1.90
2022-10-02T04:41:07.518Z,2.00
2022-10-02T04:43:40.117Z,1.90
2022-10-02T04:46:15.431Z,1.77
2022-10-02T04:48:59.923Z,1.87
2022-10-02T04:51:34.593Z,1.73
2022-10-02T04:54:14.298Z,1.60
2022-10-02T04:57:12.645Z,1.80
2022-10-02T04:59:48.034Z,1.70
2022-10-02T05:02:31.456Z,2.03
2022-10-02T05:05:11.921Z,1.70
2022-10-02T05:07:47.975Z,1.77
2022-10-02T05:10:26.228Z,1.90
2022-10-02T05:13:00.046Z,1.90
2022-10-02T05:15:34.317Z,2.13
2022-10-02T05:18:09.079Z,1.60
2022-10-02T05:20:46.134Z,1.97
2022-10-02T05:23:27.829Z,1.90
2022-10-02T05:26:14.097Z,1.70
2022-10-02T05:28:55.102Z,2.10
2022-10-02T05:31:31.234Z,2.00
2022-10-02T05:34:08.298Z,1.90
2022-10-02T05:36:44.365Z,2.00
2022-10-02T05:39:15.990Z,1.83
2022-10-02T05:41:47.456Z,1.90
2022-10-02T05:44:18.562Z,2.10
2022-10-02T05:46:48.280Z,1.93
2022-10-02T05:49:18.495Z,1.87
2022-10-02T05:51:53.753Z,1.67
2022-10-02T05:54:26.395Z,2.07
2022-10-02T05:56:58.282Z,1.87
2022-10-02T05:59:30.831Z,1.80
2022-10-02T06:02:01.030Z,1.87
2022-10-02T06:04:30.855Z,2.07
2022-10-02T06:07:03.689Z,1.90
2022-10-02T06:09:35.246Z,2.93
2022-10-02T06:12:05.014Z,2.10
2022-10-02T06:14:35.739Z,2.30
2022-10-02T06:17:06.474Z,2.00
2022-10-02T06:19:39.494Z,1.90
2022-10-02T06:22:11.962Z,2.33
2022-10-02T06:24:46.594Z,1.97
2022-10-02T06:27:17.514Z,2.37
2022-10-02T06:29:47.772Z,2.20
2022-10-02T06:32:20.024Z,2.40
2022-10-02T06:34:48.887Z,2.50
2022-10-02T06:37:30.412Z,2.80
2022-10-02T06:40:15.610Z,2.50
2022-10-02T06:42:52.936Z,2.73
2022-10-02T06:45:25.443Z,2.50
2022-10-02T06:48:00.589Z,2.70
2022-10-02T06:50:34.586Z,3.10
2022-10-02T06:53:08.462Z,2.90
2022-10-02T06:55:48.843Z,2.63
2022-10-02T06:58:24.538Z,2.93
2022-10-02T07:00:55.711Z,2.80
2022-10-02T07:03:32.653Z,3.20
2022-10-02T07:06:13.934Z,3.00
2022-10-02T07:08:51.825Z,2.80
2022-10-02T07:11:21.944Z,3.10
2022-10-02T07:14:00.093Z,2.83
2022-10-02T07:16:40.554Z,3.43
2022-10-02T07:19:25.673Z,3.57
2022-10-02T07:21:58.621Z,3.50
2022-10-02T07:24:42.786Z,3.07
2022-10-02T07:27:15.654Z,2.80
2022-10-02T07:29:48.937Z,3.40
2022-10-02T07:32:32.746Z,2.80
2022-10-02T07:35:05.460Z,2.90
2022-10-02T07:37:39.413Z,2.60
2022-10-02T07:40:26.362Z,2.80
2022-10-02T07:43:00.056Z,2.40
2022-10-02T07:45:30.021Z,2.67
2022-10-02T07:48:06.972Z,3.00
2022-10-02T07:50:40.973Z,2.90
2022-10-02T07:53:13.337Z,2.90
2022-10-02T07:55:43.885Z,2.63
2022-10-02T07:58:14.351Z,2.63
2022-10-02T08:00:45.490Z,2.80
2022-10-02T08:03:17.042Z,2.40
2022-10-02T08:05:47.018Z,2.70
2022-10-02T08:08:18.317Z,2.87
2022-10-02T08:10:50.942Z,2.60
2022-10-02T08:13:21.136Z,2.60
2022-10-02T08:15:52.339Z,2.60
2022-10-02T08:18:34.270Z,3.00
2022-10-02T08:21:04.261Z,2.73
2022-10-02T08:23:35.178Z,2.53
2022-10-02T08:26:06.810Z,2.30
2022-10-02T08:28:39.766Z,2.80
2022-10-02T08:31:11.386Z,2.90
2022-10-02T08:33:40.361Z,2.80
2022-10-02T08:36:22.279Z,2.80
2022-10-02T08:38:54.619Z,2.80
2022-10-02T08:41:50.405Z,2.93
2022-10-02T08:44:45.460Z,2.90
2022-10-02T08:47:34.849Z,2.73
2022-10-02T08:50:20.034Z,2.63
2022-10-02T08:53:18.792Z,2.80
2022-10-02T08:55:56.157Z,4.33
2022-10-02T08:58:45.645Z,3.13
2022-10-02T09:01:24.044Z,2.87
2022-10-02T09:04:10.707Z,3.13
2022-10-02T09:06:56.873Z,3.10
2022-10-02T09:09:52.214Z,2.90
2022-10-02T09:12:35.416Z,2.77
2022-10-02T09:15:15.025Z,3.60
2022-10-02T09:17:47.858Z,2.27
2022-10-02T09:20:46.279Z,2.67
2022-10-02T09:23:24.379Z,2.77
2022-10-02T09:25:58.798Z,2.40
2022-10-02T09:28:44.494Z,2.37
2022-10-02T09:31:40.440Z,2.07
2022-10-02T09:34:26.585Z,2.20
2022-10-02T09:37:04.393Z,2.20
2022-10-02T09:39:51.289Z,1.77
2022-10-02T09:42:45.214Z,2.00
2022-10-02T09:45:28.655Z,1.80
2022-10-02T09:48:22.589Z,2.00
2022-10-02T09:51:04.657Z,1.83
2022-10-02T09:53:51.002Z,1.87
2022-10-02T09:56:45.768Z,1.83
2022-10-02T09:59:38.190Z,1.90
2022-10-02T10:02:26.018Z,2.00
2022-10-02T10:05:08.902Z,1.83
2022-10-02T10:08:01.713Z,1.80
2022-10-02T10:10:45.102Z,1.77
2022-10-02T10:13:40.354Z,1.70
2022-10-02T10:16:30.792Z,2.00
2022-10-02T10:19:17.518Z,1.80
2022-10-02T10:22:01.155Z,1.57
2022-10-02T10:24:47.910Z,2.00
2022-10-02T10:27:30.309Z,2.83
2022-10-02T10:30:06.374Z,2.00
2022-10-02T10:32:57.186Z,1.87
2022-10-02T10:35:30.449Z,1.80
2022-10-02T10:38:31.249Z,1.60
2022-10-02T10:41:09.445Z,1.70
2022-10-02T10:44:04.954Z,1.60
2022-10-02T10:46:44.954Z,1.70
2022-10-02T10:49:20.990Z,1.73
2022-10-02T10:51:50.697Z,2.10
2022-10-02T10:54:40.698Z,1.90
2022-10-02T10:57:14.914Z,1.60
2022-10-02T10:59:57.901Z,1.97
2022-10-02T11:02:43.270Z,2.20
2022-10-02T11:05:26.633Z,2.30
2022-10-02T11:08:07.485Z,2.00
2022-10-02T11:10:46.243Z,1.80
2022-10-02T11:13:33.194Z,1.87
2022-10-02T11:16:28.517Z,2.03
2022-10-02T11:19:21.247Z,2.10
2022-10-02T11:22:01.413Z,2.20
2022-10-02T11:24:42.145Z,1.90
2022-10-02T11:27:37.637Z,1.90
2022-10-02T11:30:21.257Z,1.97
2022-10-02T11:33:19.817Z,2.00
2022-10-02T11:35:58.484Z,1.60
2022-10-02T11:38:42.379Z,1.60
2022-10-02T11:41:25.649Z,1.67
2022-10-02T11:44:06.646Z,1.70
2022-10-02T11:46:47.163Z,1.77
2022-10-02T11:49:26.606Z,1.70
2022-10-02T11:52:04.290Z,1.80
2022-10-02T11:54:37.671Z,1.80
2022-10-02T11:57:23.710Z,1.53
2022-10-02T12:00:12.711Z,2.07
2022-10-02T12:02:46.781Z,1.90
2022-10-02T12:05:21.771Z,1.90
2022-10-02T12:07:55.614Z,1.77
2022-10-02T12:10:30.721Z,1.87
2022-10-02T12:13:04.534Z,1.77
2022-10-02T12:15:38.653Z,2.17
2022-10-02T12:18:22.233Z,1.80
2022-10-02T12:21:16.706Z,1.70
2022-10-02T12:24:07.532Z,2.20
2022-10-02T12:27:00.053Z,1.67
2022-10-02T12:30:02.386Z,1.97
2022-10-02T12:32:57.786Z,1.77
2022-10-02T12:35:38.107Z,1.80
2022-10-02T12:38:12.928Z,2.00
2022-10-02T12:40:45.309Z,1.83
2022-10-02T12:43:28.746Z,1.70
2022-10-02T12:46:05.734Z,1.87
2022-10-02T12:48:52.033Z,1.60
2022-10-02T12:51:39.799Z,1.70
2022-10-02T12:54:22.585Z,1.80
2022-10-02T12:57:09.349Z,1.70
2022-10-02T12:59:42.844Z,1.80
2022-10-02T13:02:56.252Z,2.10
2022-10-02T13:05:38.655Z,2.30
2022-10-02T13:08:16.105Z,2.30
2022-10-02T13:10:48.337Z,2.03
2022-10-02T13:13:31.564Z,2.07
2022-10-02T13:16:05.572Z,2.37
2022-10-02T13:18:52.643Z,2.13
2022-10-02T13:21:23.153Z,2.30
2022-10-02T13:23:58.782Z,2.20
2022-10-02T13:26:32.270Z,2.30
2022-10-02T13:29:09.485Z,2.20
2022-10-02T13:31:44.127Z,2.10
2022-10-02T13:34:25.038Z,1.93
2022-10-02T13:37:00.469Z,2.27
2022-10-02T13:39:40.572Z,2.40
2022-10-02T13:42:18.202Z,1.80
2022-10-02T13:44:49.675Z,2.40
2022-10-02T13:47:26.652Z,1.80
2022-10-02T13:50:06.059Z,1.80
2022-10-02T13:52:39.443Z,2.50
2022-10-02T13:55:16.182Z,1.70
2022-10-02T13:57:51.822Z,1.70
2022-10-02T14:00:24.827Z,1.73
2022-10-02T14:02:59.315Z,1.77
2022-10-02T14:05:35.533Z,2.03
2022-10-02T14:08:09.524Z,2.30
2022-10-02T14:10:44.466Z,2.07
2022-10-02T14:13:19.099Z,2.20
2022-10-02T14:15:59.110Z,2.10
2022-10-02T14:18:43.582Z,2.20
2022-10-02T14:21:15.626Z,2.17
2022-10-02T14:23:53.901Z,2.13
2022-10-02T14:26:27.982Z,1.77
2022-10-02T14:29:09.674Z,2.00
2022-10-02T14:31:55.937Z,2.20
2022-10-02T14:34:40.848Z,2.10
2022-10-02T14:37:25.995Z,2.00
2022-10-02T14:39:55.387Z,2.03
2022-10-02T14:42:34.288Z,2.07
2022-10-02T14:45:11.114Z,1.70
2022-10-02T14:47:51.347Z,1.80
2022-10-02T14:50:26.255Z,1.80
2022-10-02T14:53:11.071Z,1.90
2022-10-02T14:55:45.429Z,1.93
2022-10-02T14:58:23.095Z,2.17
2022-10-02T15:01:02.280Z,2.00
2022-10-02T15:03:49.954Z,1.93
2022-10-02T15:06:28.482Z,1.90
2022-10-02T15:08:59.829Z,2.03
2022-10-02T15:11:47.953Z,2.10
2022-10-02T15:14:19.710Z,2.20
2022-10-02T15:17:06.596Z,1.93
2022-10-02T15:19:39.350Z,2.20
2022-10-02T15:22:12.481Z,2.03
2022-10-02T15:24:42.419Z,2.10
2022-10-02T15:27:21.359Z,2.20
2022-10-02T15:29:59.469Z,2.23
2022-10-02T15:32:51.946Z,2.27
2022-10-02T15:35:24.329Z,2.13
2022-10-02T15:38:02.830Z,2.20
2022-10-02T15:40:35.371Z,2.50
2022-10-02T15:43:23.134Z,2.27
2022-10-02T15:46:00.490Z,2.63
2022-10-02T15:48:35.969Z,2.43
2022-10-02T15:51:08.042Z,2.40
2022-10-02T15:53:48.569Z,2.30
2022-10-02T15:56:41.306Z,2.30
2022-10-02T15:59:20.321Z,2.37
2022-10-02T16:01:57.353Z,2.33
2022-10-02T16:04:29.822Z,2.50
2022-10-02T16:07:25.209Z,2.40
2022-10-02T16:10:01.603Z,2.30
2022-10-02T16:12:38.707Z,2.70
2022-10-02T16:15:12.537Z,2.57
2022-10-02T16:17:50.361Z,2.60
2022-10-02T16:20:33.781Z,2.30
2022-10-02T16:23:08.370Z,2.30
2022-10-02T16:25:43.258Z,2.80
2022-10-02T16:28:17.006Z,2.30
2022-10-02T16:31:01.422Z,2.47
2022-10-02T16:33:34.187Z,2.40
2022-10-02T16:36:19.591Z,2.57
2022-10-02T16:38:50.463Z,2.47
2022-10-02T16:41:25.729Z,2.60
2022-10-02T16:44:00.185Z,2.60
2022-10-02T16:46:34.048Z,2.53
2022-10-02T16:49:07.362Z,2.47
2022-10-02T16:51:41.491Z,2.40
2022-10-02T16:54:17.349Z,2.50
2022-10-02T16:56:48.695Z,2.40
2022-10-02T16:59:19.860Z,2.60
2022-10-02T17:02:16.039Z,2.57
2022-10-02T17:04:45.017Z,2.73
2022-10-02T17:07:30.091Z,2.80
2022-10-02T17:10:02.755Z,2.63
2022-10-02T17:12:34.074Z,2.50
2022-10-02T17:15:09.061Z,2.80
2022-10-02T17:17:48.778Z,2.80
2022-10-02T17:20:20.817Z,2.60
2022-10-02T17:22:55.613Z,2.77
2022-10-02T17:25:29.687Z,2.53
2022-10-02T17:28:00.973Z,2.40
2022-10-02T17:30:30.825Z,2.90
2022-10-02T17:33:07.869Z,3.30
2022-10-02T17:35:45.515Z,2.70
2022-10-02T17:38:28.864Z,3.13
2022-10-02T17:41:04.882Z,2.70
2022-10-02T17:43:39.177Z,2.67
2022-10-02T17:46:25.466Z,3.20
2022-10-02T17:48:57.057Z,2.60
2022-10-02T17:54:47.667Z,2.90
2022-10-02T17:57:25.046Z,3.10
2022-10-02T18:00:11.407Z,2.83
2022-10-02T18:03:00.494Z,2.70
2022-10-02T18:05:34.730Z,2.53
2022-10-02T18:08:12.222Z,3.00
2022-10-02T18:10:46.497Z,2.53
2022-10-02T18:13:22.182Z,2.77
2022-10-02T18:15:58.415Z,3.00
2022-10-02T18:18:32.187Z,3.00
2022-10-02T18:21:04.606Z,2.97
2022-10-02T18:23:47.884Z,2.90
2022-10-02T18:26:24.106Z,2.63
2022-10-02T18:29:03.593Z,2.97
2022-10-02T18:31:55.401Z,2.50
2022-10-02T18:34:43.853Z,2.57
2022-10-02T18:37:24.870Z,2.60
2022-10-02T18:40:03.594Z,2.90
2022-10-02T18:42:42.353Z,2.90
2022-10-02T18:45:25.202Z,2.87
2022-10-02T18:47:57.692Z,2.80
2022-10-02T18:50:35.750Z,2.83
2022-10-02T18:53:11.180Z,2.80
2022-10-02T18:56:02.789Z,3.42
2022-10-02T18:58:42.889Z,3.30
2022-10-02T19:01:17.808Z,2.87
2022-10-02T19:04:01.049Z,3.07
2022-10-02T19:06:31.101Z,3.27
2022-10-02T19:09:04.909Z,3.17
2022-10-02T19:11:34.362Z,3.00
2022-10-02T19:14:08.731Z,3.10
2022-10-02T19:16:37.351Z,3.20
2022-10-02T19:19:10.013Z,2.90
2022-10-02T19:21:38.992Z,3.37
2022-10-02T19:24:08.824Z,3.70
2022-10-02T19:26:44.069Z,3.50
2022-10-02T19:29:26.456Z,3.67
2022-10-02T19:31:56.003Z,3.43
2022-10-02T19:34:25.770Z,3.50
2022-10-02T19:36:58.746Z,3.10
2022-10-02T19:39:30.637Z,4.00
2022-10-02T19:42:00.844Z,4.30
2022-10-02T19:44:32.837Z,3.77
2022-10-02T19:47:03.113Z,3.47
2022-10-02T19:49:34.254Z,4.23
2022-10-02T19:52:02.909Z,3.33
2022-10-02T19:54:35.138Z,3.57
2022-10-02T19:57:05.668Z,3.53
2022-10-02T19:59:41.940Z,3.60
2022-10-02T20:02:15.309Z,4.40
2022-10-02T20:04:43.950Z,3.80
2022-10-02T20:07:16.921Z,3.97
2022-10-02T20:09:47.214Z,4.30
2022-10-02T20:12:17.189Z,4.30
2022-10-02T20:14:50.817Z,4.20
2022-10-02T20:17:19.124Z,4.10
2022-10-02T20:19:50.799Z,3.60
2022-10-02T20:22:25.941Z,3.73
2022-10-02T20:24:57.881Z,4.07
2022-10-02T20:27:31.347Z,3.50
2022-10-02T20:30:04.577Z,3.70
2022-10-02T20:32:35.785Z,4.17
2022-10-02T20:35:06.054Z,4.00
2022-10-02T20:37:35.725Z,3.70
2022-10-02T20:40:08.790Z,3.87
2022-10-02T20:42:41.303Z,3.90
2022-10-02T20:45:12.751Z,4.07
2022-10-02T20:47:46.777Z,3.53
2022-10-02T20:50:31.581Z,3.90
2022-10-02T20:53:14.835Z,3.47
2022-10-02T20:55:44.291Z,4.33
2022-10-02T20:58:23.791Z,5.47
2022-10-02T21:00:59.915Z,4.23
2022-10-02T21:03:33.238Z,4.10
2022-10-02T21:06:19.676Z,4.83
2022-10-02T21:09:04.757Z,3.70
2022-10-02T21:11:41.841Z,4.20
2022-10-02T21:14:25.312Z,3.50
2022-10-02T21:17:16.130Z,3.43
2022-10-02T21:20:00.310Z,3.80
2022-10-02T21:22:39.061Z,3.40
2022-10-02T21:25:25.183Z,3.60
2022-10-02T21:28:08.580Z,3.63
2022-10-02T21:30:40.866Z,3.73
2022-10-02T21:33:15.321Z,14.77
2022-10-02T21:35:51.245Z,3.50
2022-10-02T21:38:32.507Z,3.37
2022-10-02T21:41:21.110Z,3.73
2022-10-02T21:44:07.465Z,3.90
2022-10-02T21:46:46.190Z,3.20
2022-10-02T21:49:32.866Z,3.27
2022-10-02T22:05:27.307Z,2.70
2022-10-02T22:08:00.354Z,2.80
2022-10-02T22:10:32.318Z,2.93
2022-10-02T22:13:07.324Z,3.00
2022-10-02T22:15:40.961Z,3.40
2022-10-02T22:18:13.135Z,3.30
2022-10-02T22:20:49.687Z,3.57
2022-10-02T22:23:24.517Z,5.80
2022-10-02T22:26:00.506Z,4.03
2022-10-02T22:28:35.863Z,4.07
2022-10-02T22:31:13.740Z,3.80
2022-10-02T22:33:52.798Z,4.10
2022-10-02T22:36:42.938Z,3.70
2022-10-02T22:39:14.251Z,4.70
2022-10-02T22:41:45.799Z,4.20
2022-10-02T22:44:21.250Z,3.87
2022-10-02T22:46:52.727Z,3.97
2022-10-02T22:49:25.402Z,3.67
2022-10-02T22:52:00.159Z,3.80
2022-10-02T22:54:31.786Z,3.03
2022-10-02T22:57:08.246Z,3.30
2022-10-02T22:59:40.903Z,2.87
2022-10-02T23:02:11.656Z,4.67
2022-10-02T23:04:47.676Z,4.77
2022-10-02T23:07:18.810Z,4.23
2022-10-02T23:09:50.614Z,4.70
2022-10-02T23:12:26.638Z,4.60
2022-10-02T23:15:02.705Z,3.90
2022-10-02T23:17:33.875Z,3.90
2022-10-02T23:20:05.251Z,4.90
2022-10-02T23:22:37.003Z,5.40
2022-10-02T23:25:15.211Z,4.73
2022-10-02T23:27:48.078Z,4.63
2022-10-02T23:30:19.827Z,4.50
2022-10-02T23:32:51.441Z,4.07
2022-10-02T23:35:25.579Z,4.17
2022-10-02T23:37:58.607Z,3.50
2022-10-02T23:40:43.373Z,3.33
2022-10-02T23:43:13.899Z,3.87
2022-10-02T23:45:47.406Z,3.40
2022-10-02T23:48:16.463Z,3.53
2022-10-02T23:50:49.446Z,3.07
2022-10-02T23:53:40.393Z,3.10
2022-10-02T23:56:23.730Z,3.03
2022-10-02T23:58:59.313Z,3.77
